Main page
METAR-TAF:

METAR-TAF

Airports :

Gwadar International Airport

Gwadar, Pakistan

latitude: 25-13-59N, longitude: 062-19-46E, elevation: 29 m

METAR: missing

Time: 21:18 (16:18 UTC)

Forecast

The report was made 6 hours and 48 minutes ago, at 09:30 UTC
Forecast valid from 17 at 12 UTC to 18 at 12 UTC
Wind 10 kt from the South
Visibility: 5000 m
haze
From 17 at 1800 UTC
Wind 5 kt from the South/Southeast
Visibility: 3000 m
smoke
Temporary
from 17 at 23 UTC to 18 at 03 UTC
Wind 3 kt from variable directions
Visibility: 0800 m
fog
From 18 at 0600 UTC
Wind 10 kt from the South
Visibility: 5000 m
haze

TAF: OPGD 170930Z 1712/1812 18010KT 5000 HZ NSC FM171800 16005KT 3000 FU NSC TEMPO 1723/1803 VRB03KT 0800 FG VV/// FM180600 18010KT 5000 HZ NSC

Weather observations and forecasts of more than 4000 airports (METAR and TAF reports).

The available stations are represented by yellow and red dots on the map.

Hover mouse over dot to see the name of the station.

Then click to see weather observations and forecasts.

To change the map : click on the green buttons with a black cross to zoom in, on the green button with a dash to zoom out, or on the green arrows for adjacent maps.


METAR-TAF: